Time,TemperatureF,DewpointF,PressureIn,WindDirection,WindDirectionDegrees,WindSpeedMPH,WindSpeedGustMPH,Humidity,HourlyPrecipIn,Conditions,Clouds,dailyrainin,SoftwareType,DateUTC
2013-03-15 00:03:00,31.5,10.5,23.65,East,100,0.0,0.0,41,0.00,,---,0.00,VWS V14.00,2013-03-15 07:03:00,
2013-03-15 00:08:00,31.3,10.3,23.65,East,100,0.0,0.0,41,0.00,,---,0.00,VWS V14.00,2013-03-15 07:08:00,
2013-03-15 00:13:00,31.1,10.2,23.65,East,100,0.0,0.0,41,0.00,,---,0.00,VWS V14.00,2013-03-15 07:13:00,
2013-03-15 00:18:00,31.1,10.2,23.65,East,100,0.0,0.0,41,0.00,,---,0.00,VWS V14.00,2013-03-15 07:18:00,
2013-03-15 00:23:00,30.9,10.0,23.65,East,100,0.0,0.0,41,0.00,,---,0.00,VWS V14.00,2013-03-15 07:23:00,
2013-03-15 00:29:00,30.7,9.8,23.65,East,100,0.0,0.0,41,0.00,,---,0.00,VWS V14.00,2013-03-15 07:29:00,
2013-03-15 00:34:00,30.6,9.7,23.65,East,100,0.0,0.0,41,0.00,,---,0.00,VWS V14.00,2013-03-15 07:34:00,
2013-03-15 00:39:00,30.6,9.7,23.65,East,100,0.0,0.0,41,0.00,,---,0.00,VWS V14.00,2013-03-15 07:39:00,
2013-03-15 00:44:00,30.4,9.5,23.65,East,100,0.0,0.0,41,0.00,,---,0.00,VWS V14.00,2013-03-15 07:44:00,
2013-03-15 00:49:00,30.4,9.5,23.65,East,100,0.0,0.0,41,0.00,,---,0.00,VWS V14.00,2013-03-15 07:49:00,
2013-03-15 00:54:00,30.2,9.4,23.65,East,100,0.0,0.0,41,0.00,,---,0.00,VWS V14.00,2013-03-15 07:54:00,
2013-03-15 00:59:00,30.2,9.4,23.65,East,100,0.0,0.0,41,0.00,,---,0.00,VWS V14.00,2013-03-15 07:59:00,
2013-03-15 01:05:00,30.2,9.4,23.65,East,100,0.0,0.0,41,0.00,,---,0.00,VWS V14.00,2013-03-15 08:05:00,
2013-03-15 01:10:00,30.0,9.2,23.65,East,100,0.0,0.0,41,0.00,,---,0.00,VWS V14.00,2013-03-15 08:10:00,
2013-03-15 01:15:00,30.0,9.2,23.65,East,100,0.0,0.0,41,0.00,,---,0.00,VWS V14.00,2013-03-15 08:15:00,
2013-03-15 01:20:00,29.8,9.0,23.65,East,100,0.0,0.0,41,0.00,,---,0.00,VWS V14.00,2013-03-15 08:20:00,
2013-03-15 01:25:00,29.8,9.0,23.65,East,100,0.0,0.0,41,0.00,,---,0.00,VWS V14.00,2013-03-15 08:25:00,
2013-03-15 01:30:00,29.7,8.9,23.62,East,100,0.0,0.0,41,0.00,,---,0.00,VWS V14.00,2013-03-15 08:30:00,
2013-03-15 01:35:00,29.7,8.9,23.62,East,100,0.0,0.0,41,0.00,,---,0.00,VWS V14.00,2013-03-15 08:35:00,
2013-03-15 01:41:00,29.5,8.7,23.62,East,100,0.0,0.0,41,0.00,,---,0.00,VWS V14.00,2013-03-15 08:41:00,
2013-03-15 01:46:00,29.5,8.7,23.62,East,100,0.0,0.0,41,0.00,,---,0.00,VWS V14.00,2013-03-15 08:46:00,
2013-03-15 01:52:00,29.5,8.7,23.62,East,100,0.0,0.0,41,0.00,,---,0.00,VWS V14.00,2013-03-15 08:52:00,
2013-03-15 01:57:00,29.3,8.5,23.62,East,100,0.0,0.0,41,0.00,,---,0.00,VWS V14.00,2013-03-15 08:57:00,
2013-03-15 02:02:00,29.1,8.4,23.62,East,100,0.0,0.0,41,0.00,,---,0.00,VWS V14.00,2013-03-15 09:02:00,
2013-03-15 02:07:00,29.1,8.4,23.62,East,100,0.0,0.0,41,0.00,,---,0.00,VWS V14.00,2013-03-15 09:07:00,
2013-03-15 02:12:00,28.9,8.2,23.62,East,100,0.0,0.0,41,0.00,,---,0.00,VWS V14.00,2013-03-15 09:12:00,
2013-03-15 02:17:00,28.9,8.2,23.62,East,100,0.0,0.0,41,0.00,,---,0.00,VWS V14.00,2013-03-15 09:17:00,
2013-03-15 02:22:00,28.8,8.0,23.62,East,100,0.0,0.0,41,0.00,,---,0.00,VWS V14.00,2013-03-15 09:22:00,
2013-03-15 02:27:00,28.8,8.0,23.62,East,100,0.0,0.0,41,0.00,,---,0.00,VWS V14.00,2013-03-15 09:27:00,
2013-03-15 02:32:00,28.8,8.0,23.62,East,100,0.0,0.0,41,0.00,,---,0.00,VWS V14.00,2013-03-15 09:32:00,
2013-03-15 02:37:00,28.6,7.9,23.62,East,100,0.0,0.0,41,0.00,,---,0.00,VWS V14.00,2013-03-15 09:37:00,
2013-03-15 02:43:00,28.6,7.9,23.62,East,100,0.0,0.0,41,0.00,,---,0.00,VWS V14.00,2013-03-15 09:43:00,
2013-03-15 02:48:00,28.6,7.9,23.62,East,100,0.0,0.0,41,0.00,,---,0.00,VWS V14.00,2013-03-15 09:48:00,
2013-03-15 02:53:00,28.4,7.7,23.62,East,100,0.0,0.0,41,0.00,,---,0.00,VWS V14.00,2013-03-15 09:53:00,
2013-03-15 02:58:00,28.4,7.7,23.62,East,100,0.0,0.0,41,0.00,,---,0.00,VWS V14.00,2013-03-15 09:58:00,
2013-03-15 03:04:00,28.2,7.6,23.62,East,100,0.0,0.0,41,0.00,,---,0.00,VWS V14.00,2013-03-15 10:04:00,
2013-03-15 03:09:00,28.2,7.6,23.62,East,100,0.0,0.0,41,0.00,,---,0.00,VWS V14.00,2013-03-15 10:09:00,
2013-03-15 03:14:00,28.2,8.1,23.62,East,100,0.0,0.0,42,0.00,,---,0.00,VWS V14.00,2013-03-15 10:14:00,
2013-03-15 03:19:00,28.0,7.9,23.62,East,100,0.0,0.0,42,0.00,,---,0.00,VWS V14.00,2013-03-15 10:19:00,
2013-03-15 03:24:00,28.0,7.9,23.62,East,100,0.0,0.0,42,0.00,,---,0.00,VWS V14.00,2013-03-15 10:24:00,
2013-03-15 03:29:00,27.9,7.8,23.59,East,100,0.0,0.0,42,0.00,,---,0.00,VWS V14.00,2013-03-15 10:29:00,
2013-03-15 03:35:00,28.0,7.9,23.59,East,100,0.0,0.0,42,0.00,,---,0.00,VWS V14.00,2013-03-15 10:35:00,
2013-03-15 03:40:00,27.9,7.8,23.59,East,100,0.0,0.0,42,0.00,,---,0.00,VWS V14.00,2013-03-15 10:40:00,
2013-03-15 03:45:00,27.9,7.8,23.59,East,100,0.0,0.0,42,0.00,,---,0.00,VWS V14.00,2013-03-15 10:45:00,
2013-03-15 03:50:00,27.9,7.8,23.59,East,100,0.0,0.0,42,0.00,,---,0.00,VWS V14.00,2013-03-15 10:50:00,
2013-03-15 03:55:00,27.9,7.8,23.59,East,100,0.0,0.0,42,0.00,,---,0.00,VWS V14.00,2013-03-15 10:55:00,
2013-03-15 04:01:00,27.9,7.8,23.59,East,100,0.0,0.0,42,0.00,,---,0.00,VWS V14.00,2013-03-15 11:01:00,
2013-03-15 04:06:00,27.9,7.8,23.59,East,100,0.0,0.0,42,0.00,,---,0.00,VWS V14.00,2013-03-15 11:06:00,
2013-03-15 04:11:00,27.9,7.8,23.59,East,100,0.0,0.0,42,0.00,,---,0.00,VWS V14.00,2013-03-15 11:11:00,
2013-03-15 04:16:00,27.9,7.8,23.59,East,100,0.0,0.0,42,0.00,,---,0.00,VWS V14.00,2013-03-15 11:16:00,
2013-03-15 04:21:00,27.9,7.8,23.59,East,100,0.0,0.0,42,0.00,,---,0.00,VWS V14.00,2013-03-15 11:21:00,
2013-03-15 04:26:00,27.7,7.6,23.59,East,100,0.0,0.0,42,0.00,,---,0.00,VWS V14.00,2013-03-15 11:26:00,
2013-03-15 04:31:00,27.9,7.8,23.59,East,100,0.0,0.0,42,0.00,,---,0.00,VWS V14.00,2013-03-15 11:31:00,
2013-03-15 04:36:00,27.7,7.6,23.59,East,100,0.0,0.0,42,0.00,,---,0.00,VWS V14.00,2013-03-15 11:36:00,
2013-03-15 04:41:00,27.7,7.6,23.59,East,100,0.0,0.0,42,0.00,,---,0.00,VWS V14.00,2013-03-15 11:41:00,
2013-03-15 04:47:00,27.7,7.6,23.59,East,100,0.0,0.0,42,0.00,,---,0.00,VWS V14.00,2013-03-15 11:47:00,
2013-03-15 04:52:00,27.7,7.6,23.59,East,100,0.0,0.0,42,0.00,,---,0.00,VWS V14.00,2013-03-15 11:52:00,
2013-03-15 04:57:00,27.7,7.6,23.59,East,100,0.0,0.0,42,0.00,,---,0.00,VWS V14.00,2013-03-15 11:57:00,
2013-03-15 05:02:00,27.5,7.4,23.59,East,100,0.0,0.0,42,0.00,,---,0.00,VWS V14.00,2013-03-15 12:02:00,
2013-03-15 05:07:00,27.5,7.4,23.59,East,100,0.0,0.0,42,0.00,,---,0.00,VWS V14.00,2013-03-15 12:07:00,
2013-03-15 05:12:00,27.3,7.3,23.59,East,100,0.0,0.0,42,0.00,,---,0.00,VWS V14.00,2013-03-15 12:12:00,
2013-03-15 05:17:00,27.3,7.3,23.59,East,100,0.0,0.0,42,0.00,,---,0.00,VWS V14.00,2013-03-15 12:17:00,
2013-03-15 05:23:00,27.3,7.3,23.59,East,100,0.0,0.0,42,0.00,,---,0.00,VWS V14.00,2013-03-15 12:23:00,
2013-03-15 05:28:00,27.3,7.3,23.59,East,100,0.0,0.0,42,0.00,,---,0.00,VWS V14.00,2013-03-15 12:28:00,
2013-03-15 05:33:00,27.3,7.3,23.59,East,100,0.0,0.0,42,0.00,,---,0.00,VWS V14.00,2013-03-15 12:33:00,
2013-03-15 05:38:00,27.1,7.1,23.59,East,100,0.0,0.0,42,0.00,,---,0.00,VWS V14.00,2013-03-15 12:38:00,
2013-03-15 05:43:00,27.1,7.1,23.59,East,100,0.0,0.0,42,0.00,,---,0.00,VWS V14.00,2013-03-15 12:43:00,
2013-03-15 05:48:00,27.3,7.3,23.59,East,100,0.0,0.0,42,0.00,,---,0.00,VWS V14.00,2013-03-15 12:48:00,
2013-03-15 05:53:00,27.3,7.3,23.59,East,100,0.0,0.0,42,0.00,,---,0.00,VWS V14.00,2013-03-15 12:53:00,
2013-03-15 05:58:00,27.3,7.3,23.59,East,100,0.0,0.0,42,0.00,,---,0.00,VWS V14.00,2013-03-15 12:58:00,
2013-03-15 06:03:00,27.3,7.3,23.59,East,100,0.0,0.0,42,0.00,,---,0.00,VWS V14.00,2013-03-15 13:03:00,
2013-03-15 06:08:00,27.3,7.3,23.59,East,100,0.0,0.0,42,0.00,,---,0.00,VWS V14.00,2013-03-15 13:08:00,
2013-03-15 06:14:00,27.3,7.3,23.59,East,100,0.0,0.0,42,0.00,,---,0.00,VWS V14.00,2013-03-15 13:14:00,
2013-03-15 06:19:00,27.3,7.3,23.59,East,100,0.0,0.0,42,0.00,,---,0.00,VWS V14.00,2013-03-15 13:19:00,
2013-03-15 06:24:00,27.3,7.3,23.59,East,100,0.0,0.0,42,0.00,,---,0.00,VWS V14.00,2013-03-15 13:24:00,
2013-03-15 06:29:00,27.3,7.3,23.59,East,100,0.0,0.0,42,0.00,,---,0.00,VWS V14.00,2013-03-15 13:29:00,
2013-03-15 06:34:00,27.1,7.1,23.59,East,100,0.0,0.0,42,0.00,,---,0.00,VWS V14.00,2013-03-15 13:34:00,
2013-03-15 06:39:00,27.1,7.1,23.59,East,100,0.0,0.0,42,0.00,,---,0.00,VWS V14.00,2013-03-15 13:39:00,
2013-03-15 06:44:00,27.1,7.1,23.59,East,100,0.0,0.0,42,0.00,,---,0.00,VWS V14.00,2013-03-15 13:44:00,
2013-03-15 06:49:00,27.1,7.1,23.59,East,100,0.0,0.0,42,0.00,,---,0.00,VWS V14.00,2013-03-15 13:49:00,
2013-03-15 06:54:00,27.3,7.3,23.59,East,100,0.0,0.0,42,0.00,,---,0.00,VWS V14.00,2013-03-15 13:54:00,
2013-03-15 07:00:00,27.1,7.1,23.59,East,100,0.0,0.0,42,0.00,,---,0.00,VWS V14.00,2013-03-15 14:00:00,
2013-03-15 07:05:00,27.3,7.3,23.59,East,100,0.0,0.0,42,0.00,,---,0.00,VWS V14.00,2013-03-15 14:05:00,
2013-03-15 07:10:00,27.3,7.3,23.59,East,100,0.0,0.0,42,0.00,,---,0.00,VWS V14.00,2013-03-15 14:10:00,
2013-03-15 07:15:00,27.5,7.4,23.59,East,100,0.0,0.0,42,0.00,,---,0.00,VWS V14.00,2013-03-15 14:15:00,
2013-03-15 07:20:00,27.9,7.8,23.59,East,100,0.0,0.0,42,0.00,,---,0.00,VWS V14.00,2013-03-15 14:20:00,
2013-03-15 07:25:00,27.9,7.8,23.59,East,100,0.0,0.0,42,0.00,,---,0.00,VWS V14.00,2013-03-15 14:25:00,
2013-03-15 07:31:00,28.2,8.1,23.56,East,100,0.0,0.0,42,0.00,,---,0.00,VWS V14.00,2013-03-15 14:31:00,
2013-03-15 07:36:00,28.6,8.4,23.56,East,100,0.0,0.0,42,0.00,,---,0.00,VWS V14.00,2013-03-15 14:36:00,
2013-03-15 07:41:00,29.1,8.9,23.56,East,100,0.0,0.0,42,0.00,,---,0.00,VWS V14.00,2013-03-15 14:41:00,
2013-03-15 07:46:00,29.7,9.4,23.59,East,100,0.0,0.0,42,0.00,,---,0.00,VWS V14.00,2013-03-15 14:46:00,
2013-03-15 07:51:00,30.4,9.5,23.59,East,100,0.0,0.0,41,0.00,,---,0.00,VWS V14.00,2013-03-15 14:51:00,
2013-03-15 07:57:00,31.3,10.3,23.59,East,100,0.0,0.0,41,0.00,,---,0.00,VWS V14.00,2013-03-15 14:57:00,
2013-03-15 08:02:00,32.7,11.6,23.59,East,100,0.0,0.0,41,0.00,,---,0.00,VWS V14.00,2013-03-15 15:02:00,
2013-03-15 08:07:00,33.8,12.6,23.59,East,100,0.0,0.0,41,0.00,,---,0.00,VWS V14.00,2013-03-15 15:07:00,
2013-03-15 08:12:00,35.1,13.8,23.59,East,100,0.0,0.0,41,0.00,,---,0.00,VWS V14.00,2013-03-15 15:12:00,
2013-03-15 08:17:00,36.9,14.8,23.59,East,100,0.0,0.0,40,0.00,,---,0.00,VWS V14.00,2013-03-15 15:17:00,
2013-03-15 08:22:00,38.5,16.3,23.59,East,100,0.0,0.0,40,0.00,,---,0.00,VWS V14.00,2013-03-15 15:22:00,
2013-03-15 08:27:00,39.9,17.0,23.59,ESE,106,0.0,0.0,39,0.00,,---,0.00,VWS V14.00,2013-03-15 15:27:00,
2013-03-15 08:33:00,41.4,18.3,23.59,SSW,206,0.0,0.0,39,0.00,,---,0.00,VWS V14.00,2013-03-15 15:33:00,
2013-03-15 08:38:00,42.6,19.4,23.59,SSW,206,0.0,0.0,39,0.00,,---,0.00,VWS V14.00,2013-03-15 15:38:00,
2013-03-15 08:43:00,43.7,19.8,23.59,SSW,206,0.0,0.0,38,0.00,,---,0.00,VWS V14.00,2013-03-15 15:43:00,
2013-03-15 08:48:00,45.0,20.9,23.59,SSW,206,0.0,0.0,38,0.00,,---,0.00,VWS V14.00,2013-03-15 15:48:00,
2013-03-15 08:53:00,46.4,21.6,23.59,SSW,206,0.0,0.0,37,0.00,,---,0.00,VWS V14.00,2013-03-15 15:53:00,
2013-03-15 08:58:00,47.8,22.9,23.56,SSW,206,0.0,0.0,37,0.00,,---,0.00,VWS V14.00,2013-03-15 15:58:00,
2013-03-15 09:03:00,49.8,24.6,23.56,SSW,206,0.0,0.0,37,0.00,,---,0.00,VWS V14.00,2013-03-15 16:03:00,
2013-03-15 09:08:00,52.2,26.0,23.56,WSW,258,3.6,3.6,36,0.00,,---,0.00,VWS V14.00,2013-03-15 16:08:00,
2013-03-15 09:13:00,53.8,27.5,23.59,SW,231,3.6,3.6,36,0.00,,---,0.00,VWS V14.00,2013-03-15 16:13:00,
2013-03-15 09:19:00,55.2,28.8,23.59,South,190,2.7,4.9,36,0.00,,---,0.00,VWS V14.00,2013-03-15 16:19:00,
2013-03-15 09:24:00,56.1,28.9,23.59,WSW,247,0.0,0.0,35,0.00,,---,0.00,VWS V14.00,2013-03-15 16:24:00,
2013-03-15 09:29:00,56.8,29.5,23.59,SSW,196,3.1,4.5,35,0.00,,---,0.00,VWS V14.00,2013-03-15 16:29:00,
2013-03-15 09:34:00,57.6,30.1,23.59,SE,144,3.1,4.0,35,0.00,,---,0.00,VWS V14.00,2013-03-15 16:34:00,
2013-03-15 09:39:00,58.5,30.9,23.59,SW,216,2.7,2.7,35,0.00,,---,0.00,VWS V14.00,2013-03-15 16:39:00,
2013-03-15 09:44:00,59.2,31.6,23.56,SW,229,2.7,2.7,35,0.00,,---,0.00,VWS V14.00,2013-03-15 16:44:00,
2013-03-15 09:49:00,59.7,32.0,23.56,WSW,247,5.4,5.4,35,0.00,,---,0.00,VWS V14.00,2013-03-15 16:49:00,
2013-03-15 09:54:00,60.4,32.7,23.56,SSW,205,2.7,3.6,35,0.00,,---,0.00,VWS V14.00,2013-03-15 16:54:00,
2013-03-15 10:00:00,61.2,32.6,23.59,South,182,2.7,4.0,34,0.00,,---,0.00,VWS V14.00,2013-03-15 17:00:00,
2013-03-15 10:05:00,61.9,33.2,23.59,WSW,238,4.0,4.9,34,0.00,,---,0.00,VWS V14.00,2013-03-15 17:05:00,
2013-03-15 10:10:00,62.4,33.7,23.59,SSW,211,2.7,5.8,34,0.00,,---,0.00,VWS V14.00,2013-03-15 17:10:00,
2013-03-15 10:15:00,63.1,34.3,23.56,SSW,198,4.0,4.9,34,0.00,,---,0.00,VWS V14.00,2013-03-15 17:15:00,
2013-03-15 10:20:00,64.2,35.3,23.56,SW,235,2.2,2.7,34,0.00,,---,0.00,VWS V14.00,2013-03-15 17:20:00,
2013-03-15 10:25:00,64.8,35.0,23.56,SSW,203,2.2,4.0,33,0.00,,---,0.00,VWS V14.00,2013-03-15 17:25:00,
2013-03-15 10:31:00,65.1,35.3,23.56,SSW,197,0.0,4.9,33,0.00,,---,0.00,VWS V14.00,2013-03-15 17:31:00,
2013-03-15 10:36:00,65.7,35.8,23.56,South,188,4.9,4.9,33,0.00,,---,0.00,VWS V14.00,2013-03-15 17:36:00,
2013-03-15 10:41:00,66.4,36.4,23.56,SSW,206,3.1,6.3,33,0.00,,---,0.00,VWS V14.00,2013-03-15 17:41:00,
2013-03-15 10:46:00,67.1,37.1,23.56,South,188,3.6,4.0,33,0.00,,---,0.00,VWS V14.00,2013-03-15 17:46:00,
2013-03-15 10:52:00,67.5,37.4,23.56,WSW,245,0.0,0.0,33,0.00,,---,0.00,VWS V14.00,2013-03-15 17:52:00,
2013-03-15 10:57:00,68.5,38.3,23.56,WNW,302,5.4,5.4,33,0.00,,---,0.00,VWS V14.00,2013-03-15 17:57:00,
2013-03-15 11:02:00,69.6,39.3,23.56,South,169,0.0,5.8,33,0.00,,---,0.00,VWS V14.00,2013-03-15 18:02:00,
2013-03-15 11:07:00,70.9,39.6,23.56,SW,219,2.7,7.6,32,0.00,,---,0.00,VWS V14.00,2013-03-15 18:07:00,
2013-03-15 11:12:00,71.2,39.9,23.56,NNE,27,3.6,3.6,32,0.00,,---,0.00,VWS V14.00,2013-03-15 18:12:00,
2013-03-15 11:17:00,71.4,40.0,23.56,South,172,4.0,4.0,32,0.00,,---,0.00,VWS V14.00,2013-03-15 18:17:00,
2013-03-15 11:22:00,71.4,40.0,23.56,WSW,257,3.6,3.6,32,0.00,,---,0.00,VWS V14.00,2013-03-15 18:22:00,
2013-03-15 11:28:00,72.0,40.5,23.56,SW,233,2.7,4.9,32,0.00,,---,0.00,VWS V14.00,2013-03-15 18:28:00,
2013-03-15 11:33:00,72.5,41.0,23.56,SSE,165,5.4,5.4,32,0.00,,---,0.00,VWS V14.00,2013-03-15 18:33:00,
2013-03-15 11:38:00,72.3,40.8,23.56,SW,234,5.4,11.0,32,0.00,,---,0.00,VWS V14.00,2013-03-15 18:38:00,
2013-03-15 11:43:00,71.8,40.4,23.56,West,262,4.9,4.9,32,0.00,,---,0.00,VWS V14.00,2013-03-15 18:43:00,
2013-03-15 11:48:00,71.6,40.2,23.56,West,268,6.3,6.3,32,0.00,,---,0.00,VWS V14.00,2013-03-15 18:48:00,
2013-03-15 11:53:00,71.2,39.9,23.56,West,262,3.6,7.2,32,0.00,,---,0.00,VWS V14.00,2013-03-15 18:53:00,
2013-03-15 11:58:00,71.2,39.9,23.56,SW,222,3.6,5.8,32,0.00,,---,0.00,VWS V14.00,2013-03-15 18:58:00,
2013-03-15 12:03:00,71.1,39.7,23.56,SSW,194,3.6,4.0,32,0.00,,---,0.00,VWS V14.00,2013-03-15 19:03:00,
2013-03-15 12:08:00,71.1,39.7,23.56,NW,311,4.0,4.0,32,0.00,,---,0.00,VWS V14.00,2013-03-15 19:08:00,
2013-03-15 12:14:00,71.2,39.9,23.56,SSW,203,3.1,6.3,32,0.00,,---,0.00,VWS V14.00,2013-03-15 19:14:00,
2013-03-15 12:19:00,71.6,40.2,23.56,South,178,5.4,8.1,32,0.00,,---,0.00,VWS V14.00,2013-03-15 19:19:00,
2013-03-15 12:24:00,72.3,40.8,23.56,SSW,194,7.6,7.6,32,0.00,,---,0.00,VWS V14.00,2013-03-15 19:24:00,
2013-03-15 12:29:00,73.0,41.5,23.56,SSW,209,6.3,8.1,32,0.00,,---,0.00,VWS V14.00,2013-03-15 19:29:00,
2013-03-15 12:34:00,73.6,41.1,23.56,SSW,204,5.4,5.4,31,0.00,,---,0.00,VWS V14.00,2013-03-15 19:34:00,
2013-03-15 12:39:00,73.9,41.4,23.56,SSW,193,3.1,4.9,31,0.00,,---,0.00,VWS V14.00,2013-03-15 19:39:00,
2013-03-15 12:44:00,74.3,41.7,23.56,NW,306,4.0,4.0,31,0.00,,---,0.00,VWS V14.00,2013-03-15 19:44:00,
2013-03-15 12:50:00,74.7,42.0,23.56,WNW,286,5.8,8.1,31,0.00,,---,0.00,VWS V14.00,2013-03-15 19:50:00,
2013-03-15 12:55:00,75.2,42.5,23.56,SSE,164,2.7,5.4,31,0.00,,---,0.00,VWS V14.00,2013-03-15 19:55:00,
2013-03-15 13:00:00,75.6,42.8,23.54,South,177,3.6,6.3,31,0.00,,---,0.00,VWS V14.00,2013-03-15 20:00:00,
2013-03-15 13:05:00,75.6,42.8,23.54,SW,219,2.2,3.1,31,0.00,,---,0.00,VWS V14.00,2013-03-15 20:05:00,
2013-03-15 13:10:00,76.5,43.6,23.54,SSW,197,4.9,5.8,31,0.00,,---,0.00,VWS V14.00,2013-03-15 20:10:00,
2013-03-15 13:16:00,76.6,43.8,23.54,SW,232,4.0,4.0,31,0.00,,---,0.00,VWS V14.00,2013-03-15 20:16:00,
2013-03-15 13:21:00,75.9,43.1,23.54,NW,315,6.3,8.1,31,0.00,,---,0.00,VWS V14.00,2013-03-15 20:21:00,
2013-03-15 13:26:00,74.7,42.0,23.54,West,264,8.1,8.1,31,0.00,,---,0.00,VWS V14.00,2013-03-15 20:26:00,
2013-03-15 13:31:00,74.1,41.6,23.54,SW,236,2.7,5.4,31,0.00,,---,0.00,VWS V14.00,2013-03-15 20:31:00,
2013-03-15 13:36:00,73.4,41.0,23.54,SW,214,4.0,6.3,31,0.00,,---,0.00,VWS V14.00,2013-03-15 20:36:00,
2013-03-15 13:42:00,72.9,41.3,23.54,SW,228,4.0,10.5,32,0.00,,---,0.00,VWS V14.00,2013-03-15 20:42:00,
2013-03-15 13:47:00,72.0,40.5,23.54,WNW,297,5.4,17.4,32,0.00,,---,0.00,VWS V14.00,2013-03-15 20:47:00,
2013-03-15 13:52:00,71.2,39.9,23.54,WSW,244,8.3,13.2,32,0.00,,---,0.00,VWS V14.00,2013-03-15 20:52:00,
2013-03-15 13:57:00,71.1,39.7,23.54,WSW,239,5.4,10.1,32,0.00,,---,0.00,VWS V14.00,2013-03-15 20:57:00,
2013-03-15 14:02:00,70.9,39.6,23.54,SW,214,2.7,10.5,32,0.00,,---,0.00,VWS V14.00,2013-03-15 21:02:00,
2013-03-15 14:07:00,70.3,39.1,23.54,WNW,285,5.8,5.8,32,0.00,,---,0.00,VWS V14.00,2013-03-15 21:07:00,
2013-03-15 14:12:00,70.5,39.3,23.54,SW,217,6.3,6.3,32,0.00,,---,0.00,VWS V14.00,2013-03-15 21:12:00,
2013-03-15 14:17:00,70.0,38.8,23.54,SSW,202,4.0,7.6,32,0.00,,---,0.00,VWS V14.00,2013-03-15 21:17:00,
2013-03-15 14:23:00,69.4,39.1,23.54,NNW,344,2.7,7.2,33,0.00,,---,0.00,VWS V14.00,2013-03-15 21:23:00,
2013-03-15 14:28:00,69.6,39.3,23.51,WNW,300,2.7,8.7,33,0.00,,---,0.00,VWS V14.00,2013-03-15 21:28:00,
2013-03-15 14:33:00,69.8,38.6,23.51,WNW,298,5.4,6.3,32,0.00,,---,0.00,VWS V14.00,2013-03-15 21:33:00,
2013-03-15 14:38:00,70.0,38.8,23.51,WSW,246,5.8,5.8,32,0.00,,---,0.00,VWS V14.00,2013-03-15 21:38:00,
2013-03-15 14:43:00,69.8,38.6,23.51,WSW,240,5.4,8.7,32,0.00,,---,0.00,VWS V14.00,2013-03-15 21:43:00,
2013-03-15 14:48:00,69.4,39.1,23.51,WSW,244,6.3,6.3,33,0.00,,---,0.00,VWS V14.00,2013-03-15 21:48:00,
2013-03-15 14:53:00,68.9,38.6,23.51,WSW,247,4.0,6.3,33,0.00,,---,0.00,VWS V14.00,2013-03-15 21:53:00,
2013-03-15 14:59:00,68.9,38.6,23.51,NW,309,6.3,6.3,33,0.00,,---,0.00,VWS V14.00,2013-03-15 21:59:00,
2013-03-15 15:04:00,69.3,39.0,23.51,SW,215,4.0,7.6,33,0.00,,---,0.00,VWS V14.00,2013-03-15 22:04:00,
2013-03-15 15:09:00,69.8,38.6,23.51,SW,215,3.1,4.0,32,0.00,,---,0.00,VWS V14.00,2013-03-15 22:09:00,
2013-03-15 15:14:00,69.6,39.3,23.51,SSW,198,5.4,5.8,33,0.00,,---,0.00,VWS V14.00,2013-03-15 22:14:00,
2013-03-15 15:19:00,69.4,39.1,23.51,WSW,245,5.8,8.3,33,0.00,,---,0.00,VWS V14.00,2013-03-15 22:19:00,
2013-03-15 15:24:00,69.1,38.8,23.51,SW,222,3.6,5.4,33,0.00,,---,0.00,VWS V14.00,2013-03-15 22:24:00,
2013-03-15 15:29:00,69.3,39.0,23.51,SSW,207,8.7,8.7,33,0.00,,---,0.00,VWS V14.00,2013-03-15 22:29:00,
2013-03-15 15:34:00,69.3,39.0,23.51,SSW,192,4.0,6.3,33,0.00,,---,0.00,VWS V14.00,2013-03-15 22:34:00,
2013-03-15 15:40:00,69.3,39.0,23.51,WNW,286,4.0,7.2,33,0.00,,---,0.00,VWS V14.00,2013-03-15 22:40:00,
2013-03-15 15:45:00,69.1,38.8,23.51,SE,132,0.0,2.7,33,0.00,,---,0.00,VWS V14.00,2013-03-15 22:45:00,
2013-03-15 15:50:00,69.3,39.0,23.51,SSW,207,5.8,6.3,33,0.00,,---,0.00,VWS V14.00,2013-03-15 22:50:00,
2013-03-15 15:55:00,69.1,38.8,23.51,South,182,4.9,5.8,33,0.00,,---,0.00,VWS V14.00,2013-03-15 22:55:00,
2013-03-15 16:00:00,68.5,38.3,23.51,West,277,5.4,5.4,33,0.00,,---,0.00,VWS V14.00,2013-03-15 23:00:00,
2013-03-15 16:06:00,68.2,38.0,23.51,SW,217,0.0,4.0,33,0.00,,---,0.00,VWS V14.00,2013-03-15 23:06:00,
2013-03-15 16:11:00,68.4,38.2,23.51,West,274,3.6,3.6,33,0.00,,---,0.00,VWS V14.00,2013-03-15 23:11:00,
2013-03-15 16:17:00,69.3,39.0,23.51,SSE,156,3.1,5.4,33,0.00,,---,0.00,VWS V14.00,2013-03-15 23:17:00,
2013-03-15 16:22:00,69.8,38.6,23.51,West,276,6.7,6.7,32,0.00,,---,0.00,VWS V14.00,2013-03-15 23:22:00,
2013-03-15 16:27:00,70.7,39.4,23.51,West,272,5.4,6.3,32,0.00,,---,0.00,VWS V14.00,2013-03-15 23:27:00,
2013-03-15 16:32:00,71.2,39.9,23.51,SW,214,2.7,4.0,32,0.00,,---,0.00,VWS V14.00,2013-03-15 23:32:00,
2013-03-15 16:37:00,70.9,39.6,23.51,SSW,208,0.0,5.4,32,0.00,,---,0.00,VWS V14.00,2013-03-15 23:37:00,
2013-03-15 16:42:00,70.2,39.0,23.51,West,262,2.7,2.7,32,0.00,,---,0.00,VWS V14.00,2013-03-15 23:42:00,
2013-03-15 16:47:00,69.4,39.1,23.51,WNW,283,4.9,8.1,33,0.00,,---,0.00,VWS V14.00,2013-03-15 23:47:00,
2013-03-15 16:53:00,68.9,38.6,23.51,SW,223,2.7,3.1,33,0.00,,---,0.00,VWS V14.00,2013-03-15 23:53:00,
2013-03-15 16:58:00,68.5,38.3,23.51,South,188,4.0,4.0,33,0.00,,---,0.00,VWS V14.00,2013-03-15 23:58:00,
2013-03-15 17:03:00,68.7,38.5,23.51,SSE,152,3.6,5.8,33,0.00,,---,0.00,VWS V14.00,2013-03-16 00:03:00,
2013-03-15 17:08:00,68.9,38.6,23.51,SW,227,3.1,5.4,33,0.00,,---,0.00,VWS V14.00,2013-03-16 00:08:00,
2013-03-15 17:13:00,68.9,38.6,23.51,SW,216,2.2,4.0,33,0.00,,---,0.00,VWS V14.00,2013-03-16 00:13:00,
2013-03-15 17:18:00,68.9,38.6,23.51,SW,231,3.1,5.8,33,0.00,,---,0.00,VWS V14.00,2013-03-16 00:18:00,
2013-03-15 17:24:00,68.5,38.3,23.51,SSW,209,3.6,6.7,33,0.00,,---,0.00,VWS V14.00,2013-03-16 00:24:00,
2013-03-15 17:29:00,67.8,37.7,23.48,SW,217,2.7,3.1,33,0.00,,---,0.00,VWS V14.00,2013-03-16 00:29:00,
2013-03-15 17:34:00,66.9,36.9,23.48,West,261,2.7,3.1,33,0.00,,---,0.00,VWS V14.00,2013-03-16 00:34:00,
2013-03-15 17:39:00,66.2,36.3,23.48,SSW,196,3.6,3.6,33,0.00,,---,0.00,VWS V14.00,2013-03-16 00:39:00,
2013-03-15 17:44:00,65.7,35.8,23.48,SW,230,2.7,4.0,33,0.00,,---,0.00,VWS V14.00,2013-03-16 00:44:00,
2013-03-15 17:49:00,64.8,35.0,23.48,SW,232,2.7,3.6,33,0.00,,---,0.00,VWS V14.00,2013-03-16 00:49:00,
2013-03-15 17:55:00,64.2,35.3,23.48,SSW,205,3.1,5.4,34,0.00,,---,0.00,VWS V14.00,2013-03-16 00:55:00,
2013-03-15 18:00:00,63.5,34.7,23.48,WSW,245,3.6,5.4,34,0.00,,---,0.00,VWS V14.00,2013-03-16 01:00:00,
2013-03-15 18:05:00,63.0,34.2,23.48,SSW,197,3.6,4.9,34,0.00,,---,0.00,VWS V14.00,2013-03-16 01:05:00,
2013-03-15 18:10:00,62.2,33.5,23.48,SW,228,3.1,4.0,34,0.00,,---,0.00,VWS V14.00,2013-03-16 01:10:00,
2013-03-15 18:15:00,61.5,32.9,23.48,WSW,246,0.0,4.0,34,0.00,,---,0.00,VWS V14.00,2013-03-16 01:15:00,
2013-03-15 18:20:00,60.6,32.8,23.48,SW,233,0.0,0.0,35,0.00,,---,0.00,VWS V14.00,2013-03-16 01:20:00,
2013-03-15 18:26:00,59.7,32.0,23.48,WSW,248,0.0,2.7,35,0.00,,---,0.00,VWS V14.00,2013-03-16 01:26:00,
2013-03-15 18:31:00,58.8,31.2,23.48,WSW,256,0.0,0.0,35,0.00,,---,0.00,VWS V14.00,2013-03-16 01:31:00,
2013-03-15 18:37:00,58.1,30.6,23.48,WSW,250,0.0,0.0,35,0.00,,---,0.00,VWS V14.00,2013-03-16 01:37:00,
2013-03-15 18:42:00,57.2,29.8,23.48,WSW,240,3.1,3.1,35,0.00,,---,0.00,VWS V14.00,2013-03-16 01:42:00,
2013-03-15 18:48:00,56.7,29.3,23.48,WSW,237,0.0,0.0,35,0.00,,---,0.00,VWS V14.00,2013-03-16 01:48:00,
2013-03-15 18:53:00,55.9,28.7,23.48,SW,222,3.6,3.6,35,0.00,,---,0.00,VWS V14.00,2013-03-16 01:53:00,
2013-03-15 18:58:00,55.2,28.8,23.48,SW,231,2.7,3.6,36,0.00,,---,0.00,VWS V14.00,2013-03-16 01:58:00,
2013-03-15 19:03:00,54.7,28.3,23.48,SW,236,0.0,0.0,36,0.00,,---,0.00,VWS V14.00,2013-03-16 02:03:00,
2013-03-15 19:08:00,54.1,27.8,23.48,West,271,2.7,2.7,36,0.00,,---,0.00,VWS V14.00,2013-03-16 02:08:00,
2013-03-15 19:14:00,54.0,27.6,23.48,SW,231,2.2,3.6,36,0.00,,---,0.00,VWS V14.00,2013-03-16 02:14:00,
2013-03-15 19:19:00,53.6,27.3,23.48,SW,224,0.0,0.0,36,0.00,,---,0.00,VWS V14.00,2013-03-16 02:19:00,
2013-03-15 19:24:00,53.2,27.0,23.48,West,269,3.1,4.0,36,0.00,,---,0.00,VWS V14.00,2013-03-16 02:24:00,
2013-03-15 19:29:00,53.1,26.8,23.48,WSW,256,2.7,3.6,36,0.00,,---,0.00,VWS V14.00,2013-03-16 02:29:00,
2013-03-15 19:34:00,53.1,26.8,23.48,WSW,247,4.0,4.0,36,0.00,,---,0.00,VWS V14.00,2013-03-16 02:34:00,
2013-03-15 19:39:00,53.1,26.8,23.48,West,263,6.3,6.3,36,0.00,,---,0.00,VWS V14.00,2013-03-16 02:39:00,
2013-03-15 19:44:00,53.1,26.8,23.48,WSW,250,3.6,4.0,36,0.00,,---,0.00,VWS V14.00,2013-03-16 02:44:00,
2013-03-15 19:50:00,53.1,26.8,23.48,West,275,3.1,5.4,36,0.00,,---,0.00,VWS V14.00,2013-03-16 02:50:00,
2013-03-15 19:55:00,52.9,26.7,23.48,SW,235,4.0,4.0,36,0.00,,---,0.00,VWS V14.00,2013-03-16 02:55:00,
2013-03-15 20:00:00,52.9,26.7,23.48,WSW,258,2.7,2.7,36,0.00,,---,0.00,VWS V14.00,2013-03-16 03:00:00,
2013-03-15 20:05:00,52.5,26.4,23.48,WSW,244,2.2,2.7,36,0.00,,---,0.00,VWS V14.00,2013-03-16 03:05:00,
2013-03-15 20:10:00,52.2,26.0,23.48,WSW,253,4.9,4.9,36,0.00,,---,0.00,VWS V14.00,2013-03-16 03:10:00,
2013-03-15 20:16:00,52.0,25.9,23.48,SW,230,3.1,3.6,36,0.00,,---,0.00,VWS V14.00,2013-03-16 03:16:00,
2013-03-15 20:21:00,51.6,26.2,23.48,WSW,257,3.6,4.0,37,0.00,,---,0.00,VWS V14.00,2013-03-16 03:21:00,
2013-03-15 20:26:00,51.4,26.0,23.48,WSW,254,6.3,6.3,37,0.00,,---,0.00,VWS V14.00,2013-03-16 03:26:00,
2013-03-15 20:31:00,51.3,25.9,23.48,SW,229,3.1,4.9,37,0.00,,---,0.00,VWS V14.00,2013-03-16 03:31:00,
2013-03-15 20:37:00,51.3,25.9,23.48,WSW,245,3.1,3.1,37,0.00,,---,0.00,VWS V14.00,2013-03-16 03:37:00,
2013-03-15 20:42:00,50.9,25.6,23.48,West,264,2.7,2.7,37,0.00,,---,0.00,VWS V14.00,2013-03-16 03:42:00,
2013-03-15 20:47:00,50.7,25.4,23.48,WSW,251,3.6,4.9,37,0.00,,---,0.00,VWS V14.00,2013-03-16 03:47:00,
2013-03-15 20:52:00,50.4,25.1,23.48,WSW,240,2.2,6.3,37,0.00,,---,0.00,VWS V14.00,2013-03-16 03:52:00,
2013-03-15 20:57:00,50.2,24.9,23.48,West,261,2.2,3.1,37,0.00,,---,0.00,VWS V14.00,2013-03-16 03:57:00,
2013-03-15 21:00:00,50.2,24.9,23.48,WSW,256,0.0,3.1,37,0.00,,---,0.00,VWS V14.00,2013-03-16 04:00:00,
2013-03-15 21:01:00,50.2,24.9,23.48,WSW,240,4.0,4.0,37,0.00,,---,0.00,VWS V14.00,2013-03-16 04:01:00,
2013-03-15 21:06:00,50.0,24.8,23.48,SW,233,4.0,4.0,37,0.00,,---,0.00,VWS V14.00,2013-03-16 04:06:00,
2013-03-15 21:11:00,49.8,24.6,23.48,West,274,2.7,4.0,37,0.00,,---,0.00,VWS V14.00,2013-03-16 04:11:00,
2013-03-15 21:16:00,49.5,24.3,23.48,WSW,241,0.0,3.1,37,0.00,,---,0.00,VWS V14.00,2013-03-16 04:16:00,
2013-03-15 21:21:00,49.3,24.1,23.48,West,273,2.2,2.2,37,0.00,,---,0.00,VWS V14.00,2013-03-16 04:21:00,
2013-03-15 21:27:00,48.9,23.8,23.48,West,272,2.7,5.4,37,0.00,,---,0.00,VWS V14.00,2013-03-16 04:27:00,
2013-03-15 21:32:00,48.7,23.6,23.48,West,266,3.1,3.6,37,0.00,,---,0.00,VWS V14.00,2013-03-16 04:32:00,
2013-03-15 21:37:00,48.4,23.3,23.48,WSW,256,3.1,3.1,37,0.00,,---,0.00,VWS V14.00,2013-03-16 04:37:00,
2013-03-15 21:42:00,47.8,22.9,23.48,WSW,258,0.0,0.0,37,0.00,,---,0.00,VWS V14.00,2013-03-16 04:42:00,
2013-03-15 21:47:00,47.5,22.5,23.48,WSW,241,2.7,3.1,37,0.00,,---,0.00,VWS V14.00,2013-03-16 04:47:00,
2013-03-15 21:52:00,47.3,22.4,23.48,SW,232,0.0,4.0,37,0.00,,---,0.00,VWS V14.00,2013-03-16 04:52:00,
2013-03-15 21:58:00,46.9,22.0,23.48,West,271,2.2,2.7,37,0.00,,---,0.00,VWS V14.00,2013-03-16 04:58:00,
2013-03-15 22:03:00,46.4,21.6,23.48,West,271,0.0,0.0,37,0.00,,---,0.00,VWS V14.00,2013-03-16 05:03:00,
2013-03-15 22:08:00,45.9,21.7,23.48,West,271,0.0,0.0,38,0.00,,---,0.00,VWS V14.00,2013-03-16 05:08:00,
2013-03-15 22:13:00,45.3,21.2,23.48,West,271,0.0,0.0,38,0.00,,---,0.00,VWS V14.00,2013-03-16 05:13:00,
2013-03-15 22:18:00,44.6,20.6,23.48,West,271,0.0,0.0,38,0.00,,---,0.00,VWS V14.00,2013-03-16 05:18:00,
2013-03-15 22:23:00,43.9,19.9,23.48,West,271,0.0,0.0,38,0.00,,---,0.00,VWS V14.00,2013-03-16 05:23:00,
2013-03-15 22:28:00,43.3,19.5,23.48,West,271,0.0,0.0,38,0.00,,---,0.00,VWS V14.00,2013-03-16 05:28:00,
2013-03-15 22:33:00,42.8,19.0,23.48,West,271,0.0,0.0,38,0.00,,---,0.00,VWS V14.00,2013-03-16 05:33:00,
2013-03-15 22:38:00,42.4,19.2,23.48,West,271,0.0,0.0,39,0.00,,---,0.00,VWS V14.00,2013-03-16 05:38:00,
2013-03-15 22:44:00,42.1,18.9,23.48,West,271,0.0,0.0,39,0.00,,---,0.00,VWS V14.00,2013-03-16 05:44:00,
2013-03-15 22:49:00,41.7,18.6,23.48,West,271,0.0,0.0,39,0.00,,---,0.00,VWS V14.00,2013-03-16 05:49:00,
2013-03-15 22:54:00,41.7,18.6,23.48,West,271,0.0,0.0,39,0.00,,---,0.00,VWS V14.00,2013-03-16 05:54:00,
2013-03-15 22:59:00,41.5,18.4,23.48,West,271,0.0,0.0,39,0.00,,---,0.00,VWS V14.00,2013-03-16 05:59:00,
2013-03-15 23:04:00,41.2,18.1,23.48,West,271,0.0,0.0,39,0.00,,---,0.00,VWS V14.00,2013-03-16 06:04:00,
2013-03-15 23:09:00,40.8,17.8,23.48,West,271,0.0,0.0,39,0.00,,---,0.00,VWS V14.00,2013-03-16 06:09:00,
2013-03-15 23:15:00,40.5,17.5,23.48,West,271,0.0,0.0,39,0.00,,---,0.00,VWS V14.00,2013-03-16 06:15:00,
2013-03-15 23:20:00,40.3,17.3,23.48,West,271,0.0,0.0,39,0.00,,---,0.00,VWS V14.00,2013-03-16 06:20:00,
2013-03-15 23:25:00,39.9,17.0,23.48,West,271,0.0,0.0,39,0.00,,---,0.00,VWS V14.00,2013-03-16 06:25:00,
2013-03-15 23:30:00,39.6,16.7,23.48,West,271,0.0,0.0,39,0.00,,---,0.00,VWS V14.00,2013-03-16 06:30:00,
2013-03-15 23:35:00,39.2,16.3,23.48,West,271,0.0,0.0,39,0.00,,---,0.00,VWS V14.00,2013-03-16 06:35:00,
2013-03-15 23:40:00,38.8,16.0,23.48,West,271,0.0,0.0,39,0.00,,---,0.00,VWS V14.00,2013-03-16 06:40:00,
2013-03-15 23:45:00,38.5,15.7,23.48,West,271,0.0,0.0,39,0.00,,---,0.00,VWS V14.00,2013-03-16 06:45:00,
2013-03-15 23:50:00,38.3,15.5,23.48,West,271,0.0,0.0,39,0.00,,---,0.00,VWS V14.00,2013-03-16 06:50:00,
2013-03-15 23:55:00,37.9,15.2,23.48,West,271,0.0,0.0,39,0.00,,---,0.00,VWS V14.00,2013-03-16 06:55:00,